Amsterdam, Netherlands

12:26 PM CEST on May 25, 2015 (GMT +0200)
Aalsmeerderbrug | | Change Station
CLOSE
Current Station
Personal Weather Station
Location: Aalsmeerderbrug, NOORD-HOLLAND
Elevation: -3 ft
Nearby Weather Stations

Elev -3 ft 52.27 °N, 4.75 °E | Updated 11 minutes ago

Overcast
Overcast
60.1 °F
Feels Like 60.1 °F
N
2.2
Wind Variable Wind from NW
Gusts 6.0 mph

Today
High -- | Low -- °F
--% Chance of Precip.
Yesterday
High -- | Low -- °F
Precip. -- in
5:32 AM 9:43 PM
Waxing Crescent, 47% visible
Pressure 30.01 in
Visibility 6.2 miles
Clouds Scattered Clouds 4400 ft
Mostly Cloudy 4800 ft
Overcast 5900 ft
Dew Point 43 °F
Humidity 54%
Rainfall 0.00 in
Snow Depth Not available.
UV 3 out of 12
Pollen Not available.
Air Quality Not available.
Flu Activity Not available.
METAR EHKD 251025Z AUTO 29008KT 9999 SCT044 BKN048 OVC059 12/08 Q1016 BLU 32005KT 9999 FEW015 BKN060

More Conditions Fewer Conditions

Pressure 30.01 in
Visibility 6.2 miles
Clouds Scattered Clouds 4400 ft
Mostly Cloudy 4800 ft
Overcast 5900 ft
Dew Point 43 °F
Humidity 54%
Rainfall 0.00 in
Snow Depth Not available.
UV 3 out of 12
Pollen Not available.
Air Quality Not available.
Flu Activity Not available.
METAR EHKD 251025Z AUTO 29008KT 9999 SCT044 BKN048 OVC059 12/08 Q1016 BLU 32005KT 9999 FEW015 BKN060

More Conditions Fewer Conditions

10-Day Weather Forecast

Almanac

Astronomy

May. 25, 2015 Rise Set
Actual Time
Civil Twilight
Nautical Twilight
Astronomical Twilight
Moon
Length of Visible Light
Length of Day
Tomorrow will be .
, % of the Moon is Illuminated

Today's Extremes

Country Highs Country Lows

Community

WunderPhotos

Upload Photos

1,823,973 photos uploaded!

WunderBlogs® & News

Nearby

Air Quality

  Air Quality AQ Index Pollutant
Not available.

Snow Depth

Station Depth Elevation

Earthquake Activity

City Distance Mag. Time & Date
Minimum magnitude displayed is 2.5.

Coastal Water Temperatures

Place Temperature

Stations

Nearby Weather Stations

Station Location Temp. Windchill Dew Point Humidity Wind Precip. Elev Updated Type